Current Weather

Joliet Rgnl

Joliet, Illinois (KJOT)

Report from: Friday, June 21, 2024 7:35 PM CDT
Current time: Friday, June 21, 2024 7:56 PM CDT

Nearby weather – Weather history – Daily summaries
Weather forecast

Temperature31.6°C (88.9°F)
Heat index32.7°C (90.9°F)
Dew point18.4°C (65.1°F)
Winds 3 kts (1.5 m/s, 3.5 mph) Southwest (230°)
Visibility10 mi. (16.1 km)
Clouds Sky clear
Altimeter30.07 in.Hg (1018 mB)
Relative humidity46 %
Density altitude2,017 ft. (615 m)
Remarks Fully automated report
Automated weather observing station with precipitation discriminator
Flight conditions Visual Meteorological Conditions
Raw dataKJOT 220035Z AUTO 23003KT 10SM CLR 32/18 A3007 RMK AO2 T03160184
An error has occurred. This application may no longer respond until reloaded. Reload 🗙